sensor_id;sensor_type;location;lat;lon;timestamp;P1;durP1;ratioP1;P2;durP2;ratioP2
70850;SDS011;58475;49.662;9.636;2023-05-07T00:01:15;5.05;;;2.70;;
70850;SDS011;58475;49.662;9.636;2023-05-07T00:03:40;5.15;;;3.00;;
70850;SDS011;58475;49.662;9.636;2023-05-07T00:06:05;4.57;;;2.60;;
70850;SDS011;58475;49.662;9.636;2023-05-07T00:08:31;4.95;;;2.72;;
70850;SDS011;58475;49.662;9.636;2023-05-07T00:10:56;5.57;;;2.83;;
70850;SDS011;58475;49.662;9.636;2023-05-07T00:13:22;5.10;;;2.90;;
70850;SDS011;58475;49.662;9.636;2023-05-07T00:15:47;5.72;;;2.78;;
70850;SDS011;58475;49.662;9.636;2023-05-07T00:18:12;5.50;;;3.00;;
70850;SDS011;58475;49.662;9.636;2023-05-07T00:20:38;5.40;;;2.70;;
70850;SDS011;58475;49.662;9.636;2023-05-07T00:23:03;5.78;;;2.70;;
70850;SDS011;58475;49.662;9.636;2023-05-07T00:25:28;4.40;;;2.80;;
70850;SDS011;58475;49.662;9.636;2023-05-07T00:27:54;7.15;;;2.80;;
70850;SDS011;58475;49.662;9.636;2023-05-07T00:30:19;6.90;;;2.85;;
70850;SDS011;58475;49.662;9.636;2023-05-07T00:32:45;5.00;;;2.70;;
70850;SDS011;58475;49.662;9.636;2023-05-07T00:35:11;5.18;;;2.85;;
70850;SDS011;58475;49.662;9.636;2023-05-07T00:37:36;4.82;;;2.70;;
70850;SDS011;58475;49.662;9.636;2023-05-07T00:40:01;5.07;;;3.00;;
70850;SDS011;58475;49.662;9.636;2023-05-07T00:42:29;7.97;;;3.00;;
70850;SDS011;58475;49.662;9.636;2023-05-07T00:44:57;4.80;;;3.00;;
70850;SDS011;58475;49.662;9.636;2023-05-07T00:47:23;5.00;;;2.72;;
70850;SDS011;58475;49.662;9.636;2023-05-07T00:49:50;5.38;;;2.88;;
70850;SDS011;58475;49.662;9.636;2023-05-07T00:52:16;5.72;;;2.95;;
70850;SDS011;58475;49.662;9.636;2023-05-07T00:54:42;5.00;;;3.20;;
70850;SDS011;58475;49.662;9.636;2023-05-07T00:57:08;5.05;;;2.75;;
70850;SDS011;58475;49.662;9.636;2023-05-07T00:59:34;4.40;;;2.60;;
70850;SDS011;58475;49.662;9.636;2023-05-07T01:02:00;7.10;;;2.85;;
70850;SDS011;58475;49.662;9.636;2023-05-07T01:04:26;4.20;;;2.53;;
70850;SDS011;58475;49.662;9.636;2023-05-07T01:06:52;5.20;;;3.00;;
70850;SDS011;58475;49.662;9.636;2023-05-07T01:09:19;4.70;;;2.90;;
70850;SDS011;58475;49.662;9.636;2023-05-07T01:11:45;7.57;;;2.80;;
70850;SDS011;58475;49.662;9.636;2023-05-07T01:14:12;6.68;;;2.80;;
70850;SDS011;58475;49.662;9.636;2023-05-07T01:16:38;4.70;;;2.78;;
70850;SDS011;58475;49.662;9.636;2023-05-07T01:19:07;7.45;;;3.08;;
70850;SDS011;58475;49.662;9.636;2023-05-07T01:21:35;5.85;;;2.90;;
70850;SDS011;58475;49.662;9.636;2023-05-07T01:24:04;9.48;;;3.10;;
70850;SDS011;58475;49.662;9.636;2023-05-07T01:26:31;4.78;;;2.67;;
70850;SDS011;58475;49.662;9.636;2023-05-07T01:28:57;5.22;;;3.05;;
70850;SDS011;58475;49.662;9.636;2023-05-07T01:31:22;6.18;;;2.80;;
70850;SDS011;58475;49.662;9.636;2023-05-07T01:33:49;4.70;;;2.72;;
70850;SDS011;58475;49.662;9.636;2023-05-07T01:36:17;5.35;;;2.60;;
70850;SDS011;58475;49.662;9.636;2023-05-07T01:38:45;8.73;;;2.70;;
70850;SDS011;58475;49.662;9.636;2023-05-07T01:41:11;5.80;;;3.15;;
70850;SDS011;58475;49.662;9.636;2023-05-07T01:43:37;4.10;;;2.60;;
70850;SDS011;58475;49.662;9.636;2023-05-07T01:46:03;5.15;;;2.80;;
70850;SDS011;58475;49.662;9.636;2023-05-07T01:48:28;5.70;;;2.83;;
70850;SDS011;58475;49.662;9.636;2023-05-07T01:50:54;6.53;;;2.95;;
70850;SDS011;58475;49.662;9.636;2023-05-07T01:53:20;4.65;;;3.03;;
70850;SDS011;58475;49.662;9.636;2023-05-07T01:55:45;4.90;;;3.00;;
70850;SDS011;58475;49.662;9.636;2023-05-07T01:58:11;4.28;;;2.80;;
70850;SDS011;58475;49.662;9.636;2023-05-07T02:00:36;5.00;;;2.97;;
70850;SDS011;58475;49.662;9.636;2023-05-07T02:03:03;5.15;;;3.00;;
70850;SDS011;58475;49.662;9.636;2023-05-07T02:05:36;5.50;;;2.65;;
70850;SDS011;58475;49.662;9.636;2023-05-07T02:08:07;6.88;;;2.80;;
70850;SDS011;58475;49.662;9.636;2023-05-07T02:10:33;4.38;;;2.65;;
70850;SDS011;58475;49.662;9.636;2023-05-07T02:12:59;4.90;;;2.63;;
70850;SDS011;58475;49.662;9.636;2023-05-07T02:15:26;5.10;;;2.95;;
70850;SDS011;58475;49.662;9.636;2023-05-07T02:18:03;4.45;;;2.67;;
70850;SDS011;58475;49.662;9.636;2023-05-07T02:20:34;5.15;;;2.70;;
70850;SDS011;58475;49.662;9.636;2023-05-07T02:23:00;4.55;;;2.50;;
70850;SDS011;58475;49.662;9.636;2023-05-07T02:25:28;5.93;;;2.65;;
70850;SDS011;58475;49.662;9.636;2023-05-07T02:27:54;4.80;;;2.80;;
70850;SDS011;58475;49.662;9.636;2023-05-07T02:30:23;5.28;;;2.80;;
70850;SDS011;58475;49.662;9.636;2023-05-07T02:32:51;5.35;;;2.90;;
70850;SDS011;58475;49.662;9.636;2023-05-07T02:35:17;5.93;;;2.90;;
70850;SDS011;58475;49.662;9.636;2023-05-07T02:37:43;5.28;;;2.90;;
70850;SDS011;58475;49.662;9.636;2023-05-07T02:40:08;4.45;;;2.60;;
70850;SDS011;58475;49.662;9.636;2023-05-07T02:42:34;5.07;;;2.88;;
70850;SDS011;58475;49.662;9.636;2023-05-07T02:45:00;4.70;;;2.78;;
70850;SDS011;58475;49.662;9.636;2023-05-07T02:47:26;6.00;;;3.05;;
70850;SDS011;58475;49.662;9.636;2023-05-07T02:49:54;4.47;;;2.80;;
70850;SDS011;58475;49.662;9.636;2023-05-07T02:52:20;4.38;;;2.58;;
70850;SDS011;58475;49.662;9.636;2023-05-07T02:54:46;7.18;;;3.20;;
70850;SDS011;58475;49.662;9.636;2023-05-07T02:57:11;4.47;;;2.67;;
70850;SDS011;58475;49.662;9.636;2023-05-07T02:59:37;5.47;;;2.78;;
70850;SDS011;58475;49.662;9.636;2023-05-07T03:02:02;4.35;;;2.50;;
70850;SDS011;58475;49.662;9.636;2023-05-07T03:04:28;5.30;;;2.80;;
70850;SDS011;58475;49.662;9.636;2023-05-07T03:06:53;5.05;;;2.80;;
70850;SDS011;58475;49.662;9.636;2023-05-07T03:09:18;5.60;;;2.60;;
70850;SDS011;58475;49.662;9.636;2023-05-07T03:11:44;4.97;;;2.90;;
70850;SDS011;58475;49.662;9.636;2023-05-07T03:14:10;5.65;;;2.67;;
70850;SDS011;58475;49.662;9.636;2023-05-07T03:16:35;6.95;;;2.80;;
70850;SDS011;58475;49.662;9.636;2023-05-07T03:19:01;5.18;;;3.05;;
70850;SDS011;58475;49.662;9.636;2023-05-07T03:21:28;5.63;;;2.85;;
70850;SDS011;58475;49.662;9.636;2023-05-07T03:23:53;4.70;;;2.90;;
70850;SDS011;58475;49.662;9.636;2023-05-07T03:26:19;5.25;;;2.85;;
70850;SDS011;58475;49.662;9.636;2023-05-07T03:28:45;5.60;;;2.65;;
70850;SDS011;58475;49.662;9.636;2023-05-07T03:31:12;5.57;;;2.88;;
70850;SDS011;58475;49.662;9.636;2023-05-07T03:33:42;4.65;;;2.65;;
70850;SDS011;58475;49.662;9.636;2023-05-07T03:36:18;6.10;;;2.83;;
70850;SDS011;58475;49.662;9.636;2023-05-07T03:38:44;4.72;;;2.75;;
70850;SDS011;58475;49.662;9.636;2023-05-07T03:41:10;4.22;;;2.53;;
70850;SDS011;58475;49.662;9.636;2023-05-07T03:43:37;5.15;;;2.90;;
70850;SDS011;58475;49.662;9.636;2023-05-07T03:46:06;4.88;;;2.80;;
70850;SDS011;58475;49.662;9.636;2023-05-07T03:48:32;5.70;;;2.95;;
70850;SDS011;58475;49.662;9.636;2023-05-07T03:50:58;4.82;;;2.85;;
70850;SDS011;58475;49.662;9.636;2023-05-07T03:53:27;6.82;;;2.92;;
70850;SDS011;58475;49.662;9.636;2023-05-07T03:55:52;4.93;;;2.72;;
70850;SDS011;58475;49.662;9.636;2023-05-07T03:58:18;5.65;;;3.05;;
70850;SDS011;58475;49.662;9.636;2023-05-07T04:00:44;4.65;;;2.88;;
70850;SDS011;58475;49.662;9.636;2023-05-07T04:03:19;8.05;;;2.88;;
70850;SDS011;58475;49.662;9.636;2023-05-07T04:05:45;6.63;;;2.80;;
70850;SDS011;58475;49.662;9.636;2023-05-07T04:08:10;6.25;;;3.15;;
70850;SDS011;58475;49.662;9.636;2023-05-07T04:10:42;6.18;;;3.20;;
70850;SDS011;58475;49.662;9.636;2023-05-07T04:13:09;7.15;;;3.20;;
70850;SDS011;58475;49.662;9.636;2023-05-07T04:15:35;4.85;;;3.03;;
70850;SDS011;58475;49.662;9.636;2023-05-07T04:18:01;6.78;;;3.08;;
70850;SDS011;58475;49.662;9.636;2023-05-07T04:20:27;6.03;;;3.13;;
70850;SDS011;58475;49.662;9.636;2023-05-07T04:23:01;5.72;;;2.90;;
70850;SDS011;58475;49.662;9.636;2023-05-07T04:25:27;5.00;;;2.63;;
70850;SDS011;58475;49.662;9.636;2023-05-07T04:27:57;5.97;;;3.00;;
70850;SDS011;58475;49.662;9.636;2023-05-07T04:30:25;4.82;;;2.80;;
70850;SDS011;58475;49.662;9.636;2023-05-07T04:32:51;5.70;;;2.92;;
70850;SDS011;58475;49.662;9.636;2023-05-07T04:35:19;6.25;;;3.22;;
70850;SDS011;58475;49.662;9.636;2023-05-07T04:37:44;5.90;;;3.00;;
70850;SDS011;58475;49.662;9.636;2023-05-07T04:40:10;6.22;;;2.80;;
70850;SDS011;58475;49.662;9.636;2023-05-07T04:42:35;7.55;;;2.85;;
70850;SDS011;58475;49.662;9.636;2023-05-07T04:45:02;5.80;;;3.00;;
70850;SDS011;58475;49.662;9.636;2023-05-07T04:47:30;6.78;;;3.38;;
70850;SDS011;58475;49.662;9.636;2023-05-07T04:49:57;5.97;;;3.45;;
70850;SDS011;58475;49.662;9.636;2023-05-07T04:52:23;4.65;;;2.90;;
70850;SDS011;58475;49.662;9.636;2023-05-07T04:54:48;4.80;;;3.10;;
70850;SDS011;58475;49.662;9.636;2023-05-07T04:57:14;5.38;;;3.17;;
70850;SDS011;58475;49.662;9.636;2023-05-07T04:59:40;6.45;;;3.08;;
70850;SDS011;58475;49.662;9.636;2023-05-07T05:02:07;5.70;;;3.10;;
70850;SDS011;58475;49.662;9.636;2023-05-07T05:04:32;5.55;;;3.13;;
70850;SDS011;58475;49.662;9.636;2023-05-07T05:06:58;5.85;;;3.22;;
70850;SDS011;58475;49.662;9.636;2023-05-07T05:09:24;5.65;;;3.38;;
70850;SDS011;58475;49.662;9.636;2023-05-07T05:11:49;5.55;;;2.78;;
70850;SDS011;58475;49.662;9.636;2023-05-07T05:14:15;4.65;;;3.00;;
70850;SDS011;58475;49.662;9.636;2023-05-07T05:16:40;5.75;;;3.30;;
70850;SDS011;58475;49.662;9.636;2023-05-07T05:19:06;5.10;;;3.30;;
70850;SDS011;58475;49.662;9.636;2023-05-07T05:21:34;5.45;;;3.40;;
70850;SDS011;58475;49.662;9.636;2023-05-07T05:24:05;5.28;;;3.10;;
70850;SDS011;58475;49.662;9.636;2023-05-07T05:26:31;6.95;;;3.20;;
70850;SDS011;58475;49.662;9.636;2023-05-07T05:28:57;6.35;;;3.40;;
70850;SDS011;58475;49.662;9.636;2023-05-07T05:31:24;6.60;;;3.70;;
70850;SDS011;58475;49.662;9.636;2023-05-07T05:33:50;5.50;;;3.60;;
70850;SDS011;58475;49.662;9.636;2023-05-07T05:36:16;7.90;;;3.78;;
70850;SDS011;58475;49.662;9.636;2023-05-07T05:38:43;6.13;;;3.70;;
70850;SDS011;58475;49.662;9.636;2023-05-07T05:41:10;5.30;;;3.40;;
70850;SDS011;58475;49.662;9.636;2023-05-07T05:43:35;5.90;;;3.50;;
70850;SDS011;58475;49.662;9.636;2023-05-07T05:46:01;5.97;;;3.25;;
70850;SDS011;58475;49.662;9.636;2023-05-07T05:48:26;4.93;;;3.20;;
70850;SDS011;58475;49.662;9.636;2023-05-07T05:50:53;6.38;;;3.78;;
70850;SDS011;58475;49.662;9.636;2023-05-07T05:53:19;7.70;;;3.75;;
70850;SDS011;58475;49.662;9.636;2023-05-07T05:55:44;5.70;;;3.38;;
70850;SDS011;58475;49.662;9.636;2023-05-07T05:58:11;7.00;;;3.55;;
70850;SDS011;58475;49.662;9.636;2023-05-07T06:00:40;5.70;;;3.65;;
70850;SDS011;58475;49.662;9.636;2023-05-07T06:03:06;8.32;;;3.30;;
70850;SDS011;58475;49.662;9.636;2023-05-07T06:05:33;5.45;;;3.42;;
70850;SDS011;58475;49.662;9.636;2023-05-07T06:07:58;6.07;;;3.38;;
70850;SDS011;58475;49.662;9.636;2023-05-07T06:10:25;5.35;;;3.50;;
70850;SDS011;58475;49.662;9.636;2023-05-07T06:12:52;5.60;;;3.30;;
70850;SDS011;58475;49.662;9.636;2023-05-07T06:15:17;6.07;;;3.47;;
70850;SDS011;58475;49.662;9.636;2023-05-07T06:17:44;5.97;;;3.38;;
70850;SDS011;58475;49.662;9.636;2023-05-07T06:20:10;6.53;;;3.30;;
70850;SDS011;58475;49.662;9.636;2023-05-07T06:22:36;7.00;;;3.65;;
70850;SDS011;58475;49.662;9.636;2023-05-07T06:25:02;5.82;;;3.45;;
70850;SDS011;58475;49.662;9.636;2023-05-07T06:27:28;6.90;;;3.38;;
70850;SDS011;58475;49.662;9.636;2023-05-07T06:29:54;5.38;;;2.95;;
70850;SDS011;58475;49.662;9.636;2023-05-07T06:32:20;7.90;;;3.38;;
70850;SDS011;58475;49.662;9.636;2023-05-07T06:34:45;6.97;;;3.40;;
70850;SDS011;58475;49.662;9.636;2023-05-07T06:37:18;6.00;;;3.45;;
70850;SDS011;58475;49.662;9.636;2023-05-07T06:39:53;6.40;;;3.40;;
70850;SDS011;58475;49.662;9.636;2023-05-07T06:42:19;6.25;;;3.65;;
70850;SDS011;58475;49.662;9.636;2023-05-07T06:44:47;6.90;;;3.80;;
70850;SDS011;58475;49.662;9.636;2023-05-07T06:47:14;7.50;;;4.32;;
70850;SDS011;58475;49.662;9.636;2023-05-07T06:49:40;6.32;;;4.30;;
70850;SDS011;58475;49.662;9.636;2023-05-07T06:52:06;8.48;;;4.38;;
70850;SDS011;58475;49.662;9.636;2023-05-07T06:54:34;8.25;;;4.45;;
70850;SDS011;58475;49.662;9.636;2023-05-07T06:56:59;6.68;;;4.43;;
70850;SDS011;58475;49.662;9.636;2023-05-07T06:59:26;8.48;;;4.53;;
70850;SDS011;58475;49.662;9.636;2023-05-07T07:01:52;6.90;;;4.55;;
70850;SDS011;58475;49.662;9.636;2023-05-07T07:04:18;7.28;;;4.47;;
70850;SDS011;58475;49.662;9.636;2023-05-07T07:06:48;6.80;;;4.50;;
70850;SDS011;58475;49.662;9.636;2023-05-07T07:09:13;7.45;;;5.00;;
70850;SDS011;58475;49.662;9.636;2023-05-07T07:11:39;7.13;;;4.80;;
70850;SDS011;58475;49.662;9.636;2023-05-07T07:14:05;9.68;;;4.80;;
70850;SDS011;58475;49.662;9.636;2023-05-07T07:16:34;6.93;;;5.05;;
70850;SDS011;58475;49.662;9.636;2023-05-07T07:19:00;9.00;;;5.00;;
70850;SDS011;58475;49.662;9.636;2023-05-07T07:21:26;9.23;;;5.00;;
70850;SDS011;58475;49.662;9.636;2023-05-07T07:23:52;7.95;;;5.40;;
70850;SDS011;58475;49.662;9.636;2023-05-07T07:26:18;7.55;;;5.50;;
70850;SDS011;58475;49.662;9.636;2023-05-07T07:28:44;9.55;;;5.45;;
70850;SDS011;58475;49.662;9.636;2023-05-07T07:31:16;7.53;;;5.13;;
70850;SDS011;58475;49.662;9.636;2023-05-07T07:33:42;6.80;;;5.10;;
70850;SDS011;58475;49.662;9.636;2023-05-07T07:36:07;7.18;;;5.03;;
70850;SDS011;58475;49.662;9.636;2023-05-07T07:38:33;6.72;;;4.80;;
70850;SDS011;58475;49.662;9.636;2023-05-07T07:40:59;8.95;;;5.22;;
70850;SDS011;58475;49.662;9.636;2023-05-07T07:43:25;7.22;;;4.72;;
70850;SDS011;58475;49.662;9.636;2023-05-07T07:45:52;6.88;;;4.60;;
70850;SDS011;58475;49.662;9.636;2023-05-07T07:48:18;7.50;;;4.50;;
70850;SDS011;58475;49.662;9.636;2023-05-07T07:50:44;8.20;;;5.20;;
70850;SDS011;58475;49.662;9.636;2023-05-07T07:53:11;8.65;;;5.60;;
70850;SDS011;58475;49.662;9.636;2023-05-07T07:55:40;7.90;;;4.45;;
70850;SDS011;58475;49.662;9.636;2023-05-07T07:58:06;7.10;;;4.57;;
70850;SDS011;58475;49.662;9.636;2023-05-07T08:00:32;7.55;;;4.75;;
70850;SDS011;58475;49.662;9.636;2023-05-07T08:02:58;8.10;;;5.05;;
70850;SDS011;58475;49.662;9.636;2023-05-07T08:05:27;7.63;;;5.03;;
70850;SDS011;58475;49.662;9.636;2023-05-07T08:07:53;7.30;;;5.20;;
70850;SDS011;58475;49.662;9.636;2023-05-07T08:15:20;7.38;;;5.28;;
70850;SDS011;58475;49.662;9.636;2023-05-07T08:17:47;6.43;;;4.63;;
70850;SDS011;58475;49.662;9.636;2023-05-07T08:20:13;7.45;;;5.10;;
70850;SDS011;58475;49.662;9.636;2023-05-07T08:22:39;7.88;;;5.40;;
70850;SDS011;58475;49.662;9.636;2023-05-07T08:25:05;7.63;;;5.40;;
70850;SDS011;58475;49.662;9.636;2023-05-07T08:27:34;8.88;;;5.60;;
70850;SDS011;58475;49.662;9.636;2023-05-07T08:29:59;8.73;;;5.30;;
70850;SDS011;58475;49.662;9.636;2023-05-07T08:32:25;8.07;;;5.75;;
70850;SDS011;58475;49.662;9.636;2023-05-07T08:34:50;8.85;;;5.32;;
70850;SDS011;58475;49.662;9.636;2023-05-07T08:37:16;8.85;;;5.28;;
70850;SDS011;58475;49.662;9.636;2023-05-07T08:39:42;8.50;;;5.10;;
70850;SDS011;58475;49.662;9.636;2023-05-07T08:42:15;7.20;;;5.30;;
70850;SDS011;58475;49.662;9.636;2023-05-07T08:44:42;7.38;;;5.13;;
70850;SDS011;58475;49.662;9.636;2023-05-07T08:47:12;7.88;;;5.10;;
70850;SDS011;58475;49.662;9.636;2023-05-07T08:49:42;7.30;;;5.20;;
70850;SDS011;58475;49.662;9.636;2023-05-07T08:52:08;7.03;;;4.90;;
70850;SDS011;58475;49.662;9.636;2023-05-07T08:54:33;8.73;;;5.22;;
70850;SDS011;58475;49.662;9.636;2023-05-07T08:57:00;6.72;;;4.65;;
70850;SDS011;58475;49.662;9.636;2023-05-07T08:59:26;7.47;;;5.32;;
70850;SDS011;58475;49.662;9.636;2023-05-07T09:01:51;8.10;;;5.63;;
70850;SDS011;58475;49.662;9.636;2023-05-07T09:04:17;7.60;;;5.30;;
70850;SDS011;58475;49.662;9.636;2023-05-07T09:06:43;6.93;;;4.70;;
70850;SDS011;58475;49.662;9.636;2023-05-07T09:09:13;7.75;;;5.40;;
70850;SDS011;58475;49.662;9.636;2023-05-07T09:11:40;7.75;;;5.10;;
70850;SDS011;58475;49.662;9.636;2023-05-07T09:14:07;7.03;;;4.95;;
70850;SDS011;58475;49.662;9.636;2023-05-07T09:16:37;8.02;;;5.32;;
70850;SDS011;58475;49.662;9.636;2023-05-07T09:19:02;6.95;;;5.13;;
70850;SDS011;58475;49.662;9.636;2023-05-07T09:21:31;8.38;;;5.05;;
70850;SDS011;58475;49.662;9.636;2023-05-07T09:23:59;8.65;;;5.35;;
70850;SDS011;58475;49.662;9.636;2023-05-07T09:26:34;8.23;;;5.43;;
70850;SDS011;58475;49.662;9.636;2023-05-07T09:29:01;6.63;;;4.88;;
70850;SDS011;58475;49.662;9.636;2023-05-07T09:31:27;7.30;;;5.20;;
70850;SDS011;58475;49.662;9.636;2023-05-07T09:33:54;7.28;;;5.25;;
70850;SDS011;58475;49.662;9.636;2023-05-07T09:36:22;7.72;;;5.20;;
70850;SDS011;58475;49.662;9.636;2023-05-07T09:38:48;7.07;;;4.97;;
70850;SDS011;58475;49.662;9.636;2023-05-07T09:41:15;7.25;;;5.03;;
70850;SDS011;58475;49.662;9.636;2023-05-07T09:43:49;7.30;;;4.90;;
70850;SDS011;58475;49.662;9.636;2023-05-07T09:46:20;8.35;;;5.40;;
70850;SDS011;58475;49.662;9.636;2023-05-07T09:48:52;8.50;;;5.07;;
70850;SDS011;58475;49.662;9.636;2023-05-07T09:51:30;7.03;;;5.05;;
70850;SDS011;58475;49.662;9.636;2023-05-07T09:54:03;7.03;;;4.93;;
70850;SDS011;58475;49.662;9.636;2023-05-07T09:56:33;8.50;;;5.18;;
70850;SDS011;58475;49.662;9.636;2023-05-07T09:59:00;7.47;;;4.95;;
70850;SDS011;58475;49.662;9.636;2023-05-07T10:01:29;7.72;;;5.15;;
70850;SDS011;58475;49.662;9.636;2023-05-07T10:03:56;6.85;;;5.05;;
70850;SDS011;58475;49.662;9.636;2023-05-07T10:06:23;7.50;;;5.25;;
70850;SDS011;58475;49.662;9.636;2023-05-07T10:08:50;7.13;;;5.15;;
70850;SDS011;58475;49.662;9.636;2023-05-07T10:11:17;9.80;;;5.32;;
70850;SDS011;58475;49.662;9.636;2023-05-07T10:13:43;8.73;;;5.40;;
70850;SDS011;58475;49.662;9.636;2023-05-07T10:16:11;9.43;;;5.63;;
70850;SDS011;58475;49.662;9.636;2023-05-07T10:18:42;6.90;;;4.70;;
70850;SDS011;58475;49.662;9.636;2023-05-07T10:23:50;6.77;;;4.53;;
70850;SDS011;58475;49.662;9.636;2023-05-07T10:26:20;7.28;;;4.40;;
70850;SDS011;58475;49.662;9.636;2023-05-07T10:28:48;7.47;;;5.18;;
70850;SDS011;58475;49.662;9.636;2023-05-07T10:31:25;7.78;;;4.82;;
70850;SDS011;58475;49.662;9.636;2023-05-07T10:34:15;7.22;;;4.80;;
70850;SDS011;58475;49.662;9.636;2023-05-07T10:36:45;8.98;;;4.95;;
70850;SDS011;58475;49.662;9.636;2023-05-07T10:39:11;6.97;;;4.68;;
70850;SDS011;58475;49.662;9.636;2023-05-07T10:41:39;7.30;;;4.45;;
70850;SDS011;58475;49.662;9.636;2023-05-07T10:44:04;8.02;;;4.57;;
70850;SDS011;58475;49.662;9.636;2023-05-07T10:46:32;6.70;;;4.13;;
70850;SDS011;58475;49.662;9.636;2023-05-07T10:49:14;7.05;;;4.50;;
70850;SDS011;58475;49.662;9.636;2023-05-07T10:52:17;6.25;;;4.45;;
70850;SDS011;58475;49.662;9.636;2023-05-07T10:57:45;6.40;;;4.28;;
70850;SDS011;58475;49.662;9.636;2023-05-07T11:05:39;7.10;;;4.35;;
70850;SDS011;58475;49.662;9.636;2023-05-07T11:08:23;7.00;;;4.68;;
70850;SDS011;58475;49.662;9.636;2023-05-07T11:10:55;6.53;;;4.57;;
70850;SDS011;58475;49.662;9.636;2023-05-07T11:13:41;7.25;;;4.40;;
70850;SDS011;58475;49.662;9.636;2023-05-07T11:16:23;7.38;;;4.45;;
70850;SDS011;58475;49.662;9.636;2023-05-07T11:18:56;7.00;;;5.05;;
70850;SDS011;58475;49.662;9.636;2023-05-07T11:21:35;6.85;;;4.43;;
70850;SDS011;58475;49.662;9.636;2023-05-07T11:24:21;7.05;;;4.35;;
70850;SDS011;58475;49.662;9.636;2023-05-07T11:27:07;7.35;;;4.30;;
70850;SDS011;58475;49.662;9.636;2023-05-07T11:29:33;6.28;;;3.72;;
70850;SDS011;58475;49.662;9.636;2023-05-07T11:32:05;5.57;;;3.55;;
70850;SDS011;58475;49.662;9.636;2023-05-07T11:34:37;6.68;;;4.35;;
70850;SDS011;58475;49.662;9.636;2023-05-07T11:37:04;7.15;;;4.13;;
70850;SDS011;58475;49.662;9.636;2023-05-07T11:39:40;6.20;;;4.18;;
70850;SDS011;58475;49.662;9.636;2023-05-07T11:42:05;6.68;;;4.20;;
70850;SDS011;58475;49.662;9.636;2023-05-07T11:44:41;5.68;;;3.55;;
70850;SDS011;58475;49.662;9.636;2023-05-07T11:47:11;6.70;;;3.85;;
70850;SDS011;58475;49.662;9.636;2023-05-07T11:49:42;5.95;;;3.90;;
70850;SDS011;58475;49.662;9.636;2023-05-07T11:52:08;7.70;;;4.00;;
70850;SDS011;58475;49.662;9.636;2023-05-07T11:54:37;7.43;;;3.75;;
70850;SDS011;58475;49.662;9.636;2023-05-07T11:57:02;5.88;;;3.70;;
70850;SDS011;58475;49.662;9.636;2023-05-07T11:59:28;6.97;;;4.25;;
70850;SDS011;58475;49.662;9.636;2023-05-07T12:01:56;7.05;;;4.20;;
70850;SDS011;58475;49.662;9.636;2023-05-07T12:04:22;6.40;;;4.05;;
70850;SDS011;58475;49.662;9.636;2023-05-07T12:06:48;6.78;;;4.05;;
70850;SDS011;58475;49.662;9.636;2023-05-07T12:09:13;6.85;;;3.88;;
70850;SDS011;58475;49.662;9.636;2023-05-07T12:11:38;7.38;;;4.50;;
70850;SDS011;58475;49.662;9.636;2023-05-07T12:14:05;6.20;;;4.15;;
70850;SDS011;58475;49.662;9.636;2023-05-07T12:16:30;6.60;;;3.90;;
70850;SDS011;58475;49.662;9.636;2023-05-07T12:18:56;6.63;;;3.88;;
70850;SDS011;58475;49.662;9.636;2023-05-07T12:21:24;6.03;;;3.80;;
70850;SDS011;58475;49.662;9.636;2023-05-07T12:23:50;5.80;;;4.10;;
70850;SDS011;58475;49.662;9.636;2023-05-07T12:26:15;5.82;;;4.03;;
70850;SDS011;58475;49.662;9.636;2023-05-07T12:28:41;6.30;;;4.13;;
70850;SDS011;58475;49.662;9.636;2023-05-07T12:31:07;6.97;;;4.13;;
70850;SDS011;58475;49.662;9.636;2023-05-07T12:33:33;6.85;;;3.95;;
70850;SDS011;58475;49.662;9.636;2023-05-07T12:36:02;7.07;;;4.25;;
70850;SDS011;58475;49.662;9.636;2023-05-07T12:38:33;6.60;;;4.15;;
70850;SDS011;58475;49.662;9.636;2023-05-07T12:41:00;6.03;;;4.10;;
70850;SDS011;58475;49.662;9.636;2023-05-07T12:43:29;6.13;;;4.40;;
70850;SDS011;58475;49.662;9.636;2023-05-07T12:45:55;6.57;;;3.95;;
70850;SDS011;58475;49.662;9.636;2023-05-07T12:48:22;7.70;;;3.80;;
70850;SDS011;58475;49.662;9.636;2023-05-07T12:51:07;7.32;;;3.80;;
70850;SDS011;58475;49.662;9.636;2023-05-07T12:53:34;6.30;;;3.90;;
70850;SDS011;58475;49.662;9.636;2023-05-07T12:56:05;6.50;;;3.72;;
70850;SDS011;58475;49.662;9.636;2023-05-07T12:58:33;5.90;;;3.90;;
70850;SDS011;58475;49.662;9.636;2023-05-07T13:01:00;5.90;;;3.58;;
70850;SDS011;58475;49.662;9.636;2023-05-07T13:03:29;5.25;;;3.50;;
70850;SDS011;58475;49.662;9.636;2023-05-07T13:05:58;5.03;;;3.28;;
70850;SDS011;58475;49.662;9.636;2023-05-07T13:08:32;5.18;;;3.13;;
70850;SDS011;58475;49.662;9.636;2023-05-07T13:10:59;5.70;;;3.33;;
70850;SDS011;58475;49.662;9.636;2023-05-07T13:13:28;6.10;;;3.30;;
70850;SDS011;58475;49.662;9.636;2023-05-07T13:15:54;5.55;;;3.25;;
70850;SDS011;58475;49.662;9.636;2023-05-07T13:18:20;4.80;;;2.97;;
70850;SDS011;58475;49.662;9.636;2023-05-07T13:20:45;6.28;;;2.67;;
70850;SDS011;58475;49.662;9.636;2023-05-07T13:23:10;4.53;;;2.40;;
70850;SDS011;58475;49.662;9.636;2023-05-07T13:25:36;5.50;;;2.63;;
70850;SDS011;58475;49.662;9.636;2023-05-07T13:28:01;7.82;;;2.55;;
70850;SDS011;58475;49.662;9.636;2023-05-07T13:30:27;4.82;;;2.53;;
70850;SDS011;58475;49.662;9.636;2023-05-07T13:32:54;3.60;;;2.10;;
70850;SDS011;58475;49.662;9.636;2023-05-07T13:35:20;4.13;;;2.20;;
70850;SDS011;58475;49.662;9.636;2023-05-07T13:37:46;4.90;;;2.35;;
70850;SDS011;58475;49.662;9.636;2023-05-07T13:40:13;3.65;;;2.20;;
70850;SDS011;58475;49.662;9.636;2023-05-07T13:42:38;4.35;;;2.45;;
70850;SDS011;58475;49.662;9.636;2023-05-07T13:45:04;8.55;;;2.60;;
70850;SDS011;58475;49.662;9.636;2023-05-07T13:47:30;5.15;;;2.60;;
70850;SDS011;58475;49.662;9.636;2023-05-07T13:49:55;5.70;;;2.42;;
70850;SDS011;58475;49.662;9.636;2023-05-07T13:52:21;4.28;;;2.50;;
70850;SDS011;58475;49.662;9.636;2023-05-07T13:54:46;4.53;;;2.83;;
70850;SDS011;58475;49.662;9.636;2023-05-07T13:57:12;4.68;;;2.85;;
70850;SDS011;58475;49.662;9.636;2023-05-07T13:59:37;4.72;;;2.70;;
70850;SDS011;58475;49.662;9.636;2023-05-07T14:02:03;5.45;;;2.80;;
70850;SDS011;58475;49.662;9.636;2023-05-07T14:04:28;5.05;;;2.50;;
70850;SDS011;58475;49.662;9.636;2023-05-07T14:06:55;5.40;;;2.47;;
70850;SDS011;58475;49.662;9.636;2023-05-07T14:09:21;4.65;;;2.40;;
70850;SDS011;58475;49.662;9.636;2023-05-07T14:11:46;4.93;;;2.78;;
70850;SDS011;58475;49.662;9.636;2023-05-07T14:14:16;4.77;;;2.60;;
70850;SDS011;58475;49.662;9.636;2023-05-07T14:16:41;4.15;;;2.50;;
70850;SDS011;58475;49.662;9.636;2023-05-07T14:19:07;5.13;;;2.53;;
70850;SDS011;58475;49.662;9.636;2023-05-07T14:21:32;5.28;;;2.40;;
70850;SDS011;58475;49.662;9.636;2023-05-07T14:23:57;4.35;;;2.38;;
70850;SDS011;58475;49.662;9.636;2023-05-07T14:26:23;5.22;;;2.92;;
70850;SDS011;58475;49.662;9.636;2023-05-07T14:28:48;4.90;;;2.70;;
70850;SDS011;58475;49.662;9.636;2023-05-07T14:31:14;5.22;;;2.65;;
70850;SDS011;58475;49.662;9.636;2023-05-07T14:33:39;4.03;;;2.50;;
70850;SDS011;58475;49.662;9.636;2023-05-07T14:36:05;4.45;;;2.50;;
70850;SDS011;58475;49.662;9.636;2023-05-07T14:38:30;4.35;;;2.53;;
70850;SDS011;58475;49.662;9.636;2023-05-07T14:40:58;4.70;;;2.67;;
70850;SDS011;58475;49.662;9.636;2023-05-07T14:43:23;4.70;;;2.40;;
70850;SDS011;58475;49.662;9.636;2023-05-07T14:45:49;4.57;;;2.53;;
70850;SDS011;58475;49.662;9.636;2023-05-07T14:48:15;4.93;;;2.63;;
70850;SDS011;58475;49.662;9.636;2023-05-07T14:50:43;6.68;;;2.72;;
70850;SDS011;58475;49.662;9.636;2023-05-07T14:53:11;5.38;;;2.88;;
70850;SDS011;58475;49.662;9.636;2023-05-07T14:55:36;4.57;;;2.33;;
70850;SDS011;58475;49.662;9.636;2023-05-07T14:58:02;4.70;;;2.58;;
70850;SDS011;58475;49.662;9.636;2023-05-07T15:00:27;4.35;;;2.67;;
70850;SDS011;58475;49.662;9.636;2023-05-07T15:02:53;6.50;;;2.53;;
70850;SDS011;58475;49.662;9.636;2023-05-07T15:05:27;5.60;;;2.63;;